createdAt,value
2022-10-02T00:33:04.264Z,1.20
2022-10-02T00:51:43.126Z,1.90
2022-10-02T01:10:20.185Z,1.70
2022-10-02T01:28:59.226Z,0.80
2022-10-02T01:47:38.791Z,0.80
2022-10-02T02:06:18.585Z,1.20
2022-10-02T02:24:58.075Z,0.60
2022-10-02T02:43:35.612Z,0.30
2022-10-02T03:02:15.516Z,1.10
2022-10-02T03:39:33.364Z,0.50
2022-10-02T03:58:11.403Z,1.10
2022-10-02T04:16:47.910Z,0.80
2022-10-02T04:54:05.259Z,1.50
2022-10-02T05:31:26.052Z,1.60
2022-10-02T05:50:04.701Z,1.90
2022-10-02T06:08:47.272Z,3.20
2022-10-02T07:04:58.651Z,1.50
2022-10-02T07:42:17.664Z,1.90
2022-10-02T08:01:00.355Z,1.70
2022-10-02T08:19:40.489Z,1.10
2022-10-02T08:38:22.671Z,1.40
2022-10-02T08:57:06.583Z,1.10
2022-10-02T09:34:35.127Z,1.00
2022-10-02T10:11:56.111Z,0.40
2022-10-02T10:30:37.086Z,1.10
2022-10-02T10:49:22.512Z,0.40
2022-10-02T11:08:20.867Z,0.40
2022-10-02T11:27:13.928Z,0.20
2022-10-02T11:45:57.410Z,0.30
2022-10-02T12:04:36.595Z,0.30
2022-10-02T12:23:26.954Z,0.20
2022-10-02T12:42:08.641Z,0.20
2022-10-02T13:00:57.335Z,0.20
2022-10-02T13:19:32.173Z,0.50
2022-10-02T13:38:03.785Z,1.10
2022-10-02T14:15:25.303Z,0.60
2022-10-02T15:29:43.174Z,1.10
2022-10-02T15:48:06.572Z,2.10
2022-10-02T16:43:37.121Z,1.70
2022-10-02T17:02:17.859Z,1.30
2022-10-02T17:20:50.061Z,2.80
2022-10-02T17:39:30.337Z,3.90
2022-10-02T17:58:04.285Z,1.50
2022-10-02T18:35:21.702Z,3.30
2022-10-02T19:12:36.870Z,2.20
2022-10-02T19:31:15.711Z,3.20
2022-10-02T19:49:51.139Z,2.00
2022-10-02T20:08:30.994Z,2.40
2022-10-02T20:27:09.667Z,1.90
2022-10-02T20:45:47.488Z,2.50
2022-10-02T21:04:25.669Z,1.90
2022-10-02T21:23:04.394Z,0.60
2022-10-02T21:41:44.494Z,1.20
2022-10-02T22:00:23.556Z,1.90
2022-10-02T22:19:00.510Z,3.20
2022-10-02T22:37:41.481Z,2.40
2022-10-02T22:56:21.657Z,1.50
2022-10-02T23:14:59.755Z,2.00
2022-10-02T23:33:40.534Z,3.10
2022-10-02T23:52:17.990Z,2.60
